createdAt,value
2018-07-10T00:03:58.419Z,20.80
2018-07-10T00:06:17.866Z,20.60
2018-07-10T00:10:47.764Z,20.40
2018-07-10T00:12:52.335Z,20.30
2018-07-10T00:14:56.810Z,20.20
2018-07-10T00:17:01.298Z,20.10
2018-07-10T00:19:05.863Z,20.10
2018-07-10T00:21:10.431Z,20.00
2018-07-10T00:23:15.032Z,20.00
2018-07-10T00:25:19.538Z,20.00
2018-07-10T00:27:24.089Z,20.00
2018-07-10T00:29:28.598Z,20.00
2018-07-10T00:31:33.071Z,20.00
2018-07-10T00:33:37.595Z,20.00
2018-07-10T00:35:42.098Z,20.00
2018-07-10T00:39:05.788Z,20.00
2018-07-10T00:41:10.702Z,20.00
2018-07-10T00:43:15.266Z,20.00
2018-07-10T00:45:19.872Z,19.90
2018-07-10T00:47:25.184Z,19.90
2018-07-10T00:49:30.875Z,19.90
2018-07-10T00:51:38.542Z,19.90
2018-07-10T00:53:43.453Z,19.90
2018-07-10T00:55:48.040Z,19.90
2018-07-10T00:57:52.604Z,19.80
2018-07-10T00:59:57.242Z,19.80
2018-07-10T01:04:09.945Z,19.80
2018-07-10T01:06:18.745Z,19.70
2018-07-10T01:08:26.214Z,19.70
2018-07-10T01:10:32.902Z,19.70
2018-07-10T01:12:38.691Z,19.70
2018-07-10T01:14:44.574Z,19.70
2018-07-10T01:16:53.814Z,19.70
2018-07-10T01:21:15.994Z,19.60
2018-07-10T01:23:26.819Z,19.60
2018-07-10T01:27:40.147Z,19.60
2018-07-10T01:29:50.282Z,19.60
2018-07-10T01:31:57.136Z,19.60
2018-07-10T01:34:02.997Z,19.60
2018-07-10T01:36:10.786Z,19.50
2018-07-10T01:38:16.805Z,19.50
2018-07-10T01:40:24.649Z,19.50
2018-07-10T01:42:34.108Z,19.50
2018-07-10T01:44:43.055Z,19.50
2018-07-10T01:46:50.011Z,19.40
2018-07-10T01:48:55.805Z,19.50
2018-07-10T01:51:05.002Z,19.40
2018-07-10T01:53:10.652Z,19.40
2018-07-10T01:57:25.112Z,19.40
2018-07-10T01:59:31.756Z,19.30
2018-07-10T02:01:37.754Z,19.30
2018-07-10T02:03:42.321Z,19.30
2018-07-10T02:05:46.994Z,19.20
2018-07-10T02:09:59.653Z,19.10
2018-07-10T02:12:05.474Z,19.10
2018-07-10T02:14:12.598Z,19.10
2018-07-10T02:16:19.647Z,19.10
2018-07-10T02:18:27.681Z,19.10
2018-07-10T02:21:09.921Z,19.10
2018-07-10T02:23:16.471Z,19.00
2018-07-10T02:25:22.072Z,19.00
2018-07-10T02:29:30.790Z,18.90
2018-07-10T02:31:36.868Z,18.90
2018-07-10T02:33:41.563Z,18.90
2018-07-10T02:35:46.459Z,18.90
2018-07-10T02:37:50.970Z,18.80
2018-07-10T02:39:55.595Z,18.80
2018-07-10T02:42:00.154Z,18.80
2018-07-10T02:46:10.078Z,18.80
2018-07-10T02:48:15.277Z,18.80
2018-07-10T02:50:19.902Z,18.80
2018-07-10T02:52:24.463Z,18.80
2018-07-10T02:54:34.575Z,18.80
2018-07-10T02:56:40.481Z,18.70
2018-07-10T02:58:45.018Z,18.70
2018-07-10T03:00:49.606Z,18.60
2018-07-10T03:02:54.370Z,18.70
2018-07-10T03:05:03.183Z,18.60
2018-07-10T03:09:13.855Z,18.60
2018-07-10T03:11:18.354Z,18.60
2018-07-10T03:13:23.852Z,18.50
2018-07-10T03:15:28.442Z,18.50
2018-07-10T03:17:32.955Z,18.50
2018-07-10T03:19:38.279Z,18.40
2018-07-10T03:21:42.848Z,18.40
2018-07-10T03:23:47.382Z,18.40
2018-07-10T03:25:52.785Z,18.40
2018-07-10T03:27:57.338Z,18.40
2018-07-10T03:30:02.504Z,18.40
2018-07-10T03:32:07.108Z,18.40
2018-07-10T03:36:18.065Z,18.40
2018-07-10T03:38:22.639Z,18.40
2018-07-10T03:40:29.573Z,18.40
2018-07-10T03:42:34.123Z,18.40
2018-07-10T03:44:40.540Z,18.40
2018-07-10T03:46:45.131Z,18.30
2018-07-10T03:48:49.709Z,18.30
2018-07-10T03:50:55.525Z,18.30
2018-07-10T03:53:00.106Z,18.30
2018-07-10T03:55:08.044Z,18.30
2018-07-10T03:57:15.346Z,18.30
2018-07-10T03:59:19.925Z,18.30
2018-07-10T04:01:26.534Z,18.30
2018-07-10T04:03:34.446Z,18.30
2018-07-10T04:05:40.655Z,18.20
2018-07-10T04:07:47.437Z,18.20
2018-07-10T04:09:57.531Z,18.20
2018-07-10T04:12:06.545Z,18.20
2018-07-10T04:14:14.803Z,18.20
2018-07-10T04:16:21.819Z,18.20
2018-07-10T04:18:32.652Z,18.20
2018-07-10T04:21:22.303Z,18.10
2018-07-10T04:23:33.707Z,18.20
2018-07-10T04:25:38.321Z,18.10
2018-07-10T04:27:52.367Z,18.10
2018-07-10T04:30:09.208Z,18.10
2018-07-10T04:32:14.674Z,18.10
2018-07-10T04:34:20.042Z,18.00
2018-07-10T04:36:25.268Z,18.10
2018-07-10T04:38:30.003Z,18.00
2018-07-10T04:40:35.002Z,18.00
2018-07-10T04:42:58.454Z,18.00
2018-07-10T04:45:14.295Z,18.00
2018-07-10T04:47:28.506Z,18.00
2018-07-10T04:49:49.356Z,18.00
2018-07-10T04:52:34.799Z,18.00
2018-07-10T04:54:53.842Z,18.10
2018-07-10T04:57:13.073Z,18.00
2018-07-10T04:59:17.632Z,18.00
2018-07-10T05:01:30.355Z,18.00
2018-07-10T05:03:34.875Z,18.00
2018-07-10T05:05:39.470Z,18.00
2018-07-10T05:07:44.436Z,18.00
2018-07-10T05:09:49.621Z,18.00
2018-07-10T05:11:54.160Z,18.00
2018-07-10T05:13:59.083Z,18.00
2018-07-10T05:16:05.850Z,18.00
2018-07-10T05:18:11.636Z,18.00
2018-07-10T05:20:16.138Z,18.00
2018-07-10T05:22:20.893Z,18.00
2018-07-10T05:24:25.469Z,18.00
2018-07-10T05:26:30.014Z,18.00
2018-07-10T05:28:34.947Z,18.00
2018-07-10T05:30:42.730Z,18.00
2018-07-10T05:32:47.646Z,18.00
2018-07-10T05:34:52.315Z,18.00
2018-07-10T05:36:56.890Z,18.00
2018-07-10T05:39:07.846Z,18.00
2018-07-10T05:41:17.731Z,18.00
2018-07-10T05:43:22.297Z,18.00
2018-07-10T05:45:26.822Z,18.00
2018-07-10T05:47:32.278Z,18.00
2018-07-10T05:49:40.810Z,18.10
2018-07-10T05:51:49.708Z,18.10
2018-07-10T05:53:54.236Z,18.10
2018-07-10T05:55:59.666Z,18.10
2018-07-10T05:58:04.258Z,18.10
2018-07-10T06:00:08.873Z,18.10
2018-07-10T06:02:13.830Z,18.10
2018-07-10T06:04:18.909Z,18.20
2018-07-10T06:06:23.474Z,18.20
2018-07-10T06:08:28.206Z,18.20
2018-07-10T06:10:34.360Z,18.30
2018-07-10T06:12:38.871Z,18.30
2018-07-10T06:14:43.569Z,18.30
2018-07-10T06:16:48.886Z,18.40
2018-07-10T06:21:00.219Z,18.50
2018-07-10T06:23:04.833Z,18.50
2018-07-10T06:25:09.559Z,18.60
2018-07-10T06:27:14.294Z,18.60
2018-07-10T06:29:24.667Z,18.70
2018-07-10T06:31:46.536Z,18.80
2018-07-10T06:34:03.296Z,18.80
2018-07-10T06:36:28.460Z,18.90
2018-07-10T06:38:34.326Z,19.00
2018-07-10T06:40:40.643Z,19.00
2018-07-10T06:42:53.781Z,19.00
2018-07-10T06:45:03.178Z,19.00
2018-07-10T06:47:21.685Z,19.00
2018-07-10T06:49:35.819Z,19.00
2018-07-10T06:51:40.350Z,19.00
2018-07-10T06:53:46.540Z,19.00
2018-07-10T06:55:57.135Z,19.00
2018-07-10T06:58:01.826Z,19.00
2018-07-10T07:00:09.196Z,19.00
2018-07-10T07:02:13.765Z,19.10
2018-07-10T07:04:18.372Z,19.10
2018-07-10T07:08:27.943Z,19.10
2018-07-10T07:10:32.426Z,19.10
2018-07-10T07:12:37.666Z,19.10
2018-07-10T07:14:42.168Z,19.10
2018-07-10T07:16:46.808Z,19.10
2018-07-10T07:18:51.864Z,19.20
2018-07-10T07:20:56.377Z,19.20
2018-07-10T07:23:01.021Z,19.20
2018-07-10T07:25:05.721Z,19.20
2018-07-10T07:27:10.512Z,19.20
2018-07-10T07:29:15.784Z,19.30
2018-07-10T07:31:20.313Z,19.30
2018-07-10T07:33:24.883Z,19.30
2018-07-10T07:35:29.463Z,19.30
2018-07-10T07:37:38.573Z,19.30
2018-07-10T07:41:49.657Z,19.40
2018-07-10T07:43:54.348Z,19.40
2018-07-10T07:55:49.600Z,19.40
2018-07-10T07:57:54.166Z,19.40
2018-07-10T07:59:58.749Z,19.20
2018-07-10T08:02:03.465Z,19.10
2018-07-10T08:04:08.051Z,19.10
2018-07-10T08:06:13.083Z,19.10
2018-07-10T08:08:17.727Z,19.10
2018-07-10T08:10:22.394Z,19.20
2018-07-10T08:12:29.622Z,19.20
2018-07-10T08:14:37.393Z,19.20
2018-07-10T08:16:48.556Z,19.30
2018-07-10T08:18:53.313Z,19.30
2018-07-10T08:20:58.177Z,19.30
2018-07-10T08:23:02.711Z,19.30
2018-07-10T08:25:07.625Z,19.40
2018-07-10T08:27:12.183Z,19.40
2018-07-10T08:29:16.766Z,19.50
2018-07-10T08:31:21.530Z,19.50
2018-07-10T08:33:26.125Z,19.50
2018-07-10T08:35:30.902Z,19.50
2018-07-10T08:37:35.515Z,19.60
2018-07-10T08:39:40.684Z,19.60
2018-07-10T08:41:47.174Z,19.60
2018-07-10T08:43:51.886Z,19.60
2018-07-10T08:45:56.767Z,19.60
2018-07-10T08:48:02.454Z,19.70
2018-07-10T08:50:07.044Z,19.70
2018-07-10T08:52:13.110Z,19.60
2018-07-10T08:54:19.965Z,19.70
2018-07-10T08:56:24.850Z,19.70
2018-07-10T08:58:29.907Z,19.70
2018-07-10T09:00:34.482Z,19.70
2018-07-10T09:02:39.100Z,19.70
2018-07-10T09:04:43.664Z,19.70
2018-07-10T09:06:49.497Z,19.60
2018-07-10T09:08:54.075Z,19.60
2018-07-10T09:10:58.574Z,19.70
2018-07-10T09:13:03.210Z,19.60
2018-07-10T09:15:08.022Z,19.60
2018-07-10T09:17:12.563Z,19.60
2018-07-10T09:19:21.381Z,19.60
2018-07-10T09:21:25.978Z,19.60
2018-07-10T09:23:32.074Z,19.60
2018-07-10T09:25:36.600Z,19.60
2018-07-10T09:27:45.802Z,19.50
2018-07-10T09:29:56.118Z,19.60
2018-07-10T09:32:06.651Z,19.50
2018-07-10T09:34:14.347Z,19.50
2018-07-10T09:36:22.557Z,19.50
2018-07-10T09:38:31.597Z,19.50
2018-07-10T09:40:42.407Z,19.50
2018-07-10T09:43:06.592Z,19.50
2018-07-10T09:45:12.631Z,19.50
2018-07-10T09:47:20.673Z,19.40
2018-07-10T09:49:26.600Z,19.40
2018-07-10T09:51:32.356Z,19.40
2018-07-10T09:53:38.974Z,19.40
2018-07-10T09:55:46.896Z,19.40
2018-07-10T09:57:54.289Z,19.30
2018-07-10T10:00:02.019Z,19.30
2018-07-10T10:02:11.882Z,19.30
2018-07-10T10:04:16.522Z,19.30
2018-07-10T10:08:26.054Z,19.30
2018-07-10T10:10:30.626Z,19.30
2018-07-10T10:12:40.026Z,19.30
2018-07-10T10:16:59.248Z,19.30
2018-07-10T10:21:18.337Z,19.30
2018-07-10T10:23:27.707Z,19.30
2018-07-10T10:25:36.951Z,19.20
2018-07-10T10:27:42.982Z,19.20
2018-07-10T10:29:47.604Z,19.20
2018-07-10T10:31:52.274Z,19.20
2018-07-10T10:33:56.838Z,19.20
2018-07-10T10:36:01.473Z,19.20
2018-07-10T10:38:06.507Z,19.20
2018-07-10T10:40:11.095Z,19.20
2018-07-10T10:42:17.113Z,19.20
2018-07-10T10:44:21.663Z,19.20
2018-07-10T10:46:27.241Z,19.20
2018-07-10T10:48:31.796Z,19.20
2018-07-10T10:50:37.183Z,19.10
2018-07-10T10:52:41.711Z,19.10
2018-07-10T10:54:46.348Z,19.10
2018-07-10T10:58:55.322Z,19.10
2018-07-10T11:00:59.917Z,19.10
2018-07-10T11:03:05.847Z,19.00
2018-07-10T11:05:10.495Z,19.00
2018-07-10T11:07:16.069Z,19.00
2018-07-10T11:09:20.707Z,19.00
2018-07-10T11:13:29.794Z,19.00
2018-07-10T11:15:50.831Z,19.00
2018-07-10T11:18:04.038Z,18.90
2018-07-10T11:20:42.116Z,18.90
2018-07-10T11:22:58.166Z,18.90
2018-07-10T11:25:12.989Z,18.90
2018-07-10T11:27:45.123Z,18.90
2018-07-10T11:29:49.776Z,18.90
2018-07-10T11:31:54.402Z,18.90
2018-07-10T11:33:59.117Z,18.90
2018-07-10T11:36:03.714Z,18.90
2018-07-10T11:38:11.938Z,18.90
2018-07-10T11:40:16.521Z,18.90
2018-07-10T11:42:23.110Z,18.90
2018-07-10T11:44:27.660Z,18.90
2018-07-10T11:46:32.264Z,19.00
2018-07-10T11:48:36.801Z,19.00
2018-07-10T11:52:45.661Z,19.00
2018-07-10T11:54:50.342Z,19.00
2018-07-10T11:56:54.939Z,19.00
2018-07-10T11:58:59.493Z,19.10
2018-07-10T12:03:09.362Z,19.10
2018-07-10T12:05:16.484Z,19.20
2018-07-10T12:07:21.123Z,19.20
2018-07-10T12:09:26.029Z,19.20
2018-07-10T12:11:32.747Z,19.20
2018-07-10T12:13:37.318Z,19.30
2018-07-10T12:15:41.859Z,19.30
2018-07-10T12:17:49.467Z,19.30
2018-07-10T12:19:54.051Z,19.30
2018-07-10T12:22:01.613Z,19.30
2018-07-10T12:24:07.055Z,19.40
2018-07-10T12:28:16.115Z,19.40
2018-07-10T12:30:20.689Z,19.40
2018-07-10T12:32:26.463Z,19.40
2018-07-10T12:34:31.051Z,19.40
2018-07-10T12:36:36.764Z,19.40
2018-07-10T12:38:41.374Z,19.40
2018-07-10T12:40:46.259Z,19.50
2018-07-10T12:42:51.938Z,19.50
2018-07-10T12:44:56.478Z,19.50
2018-07-10T12:47:02.412Z,19.50
2018-07-10T12:49:07.361Z,19.50
2018-07-10T12:51:11.881Z,19.50
2018-07-10T12:53:16.463Z,19.50
2018-07-10T12:55:23.212Z,19.50
2018-07-10T12:57:32.006Z,19.60
2018-07-10T12:59:36.749Z,19.60
2018-07-10T13:01:43.172Z,19.60
2018-07-10T13:03:48.562Z,19.70
2018-07-10T13:05:58.038Z,19.70
2018-07-10T13:08:02.608Z,19.70
2018-07-10T13:10:07.102Z,19.70
2018-07-10T13:12:11.739Z,19.70
2018-07-10T13:14:16.366Z,19.70
2018-07-10T13:16:21.002Z,19.70
2018-07-10T13:18:29.403Z,19.80
2018-07-10T13:20:33.941Z,19.70
2018-07-10T13:22:38.811Z,19.80
2018-07-10T13:24:43.453Z,19.70
2018-07-10T13:26:48.106Z,19.70
2018-07-10T13:30:57.333Z,19.70
2018-07-10T13:33:01.978Z,19.70
2018-07-10T13:35:06.637Z,19.70
2018-07-10T13:37:11.502Z,19.80
2018-07-10T13:39:16.082Z,19.80
2018-07-10T13:41:20.626Z,19.70
2018-07-10T13:43:25.160Z,19.80
2018-07-10T13:45:31.049Z,19.80
2018-07-10T13:47:35.619Z,19.80
2018-07-10T13:49:40.165Z,19.80
2018-07-10T13:51:44.823Z,19.70
2018-07-10T13:53:49.314Z,19.80
2018-07-10T13:55:53.949Z,19.80
2018-07-10T13:58:18.770Z,19.70
2018-07-10T14:00:23.391Z,19.80
2018-07-10T14:02:29.039Z,19.80
2018-07-10T14:04:33.599Z,19.80
2018-07-10T14:06:41.465Z,19.80
2018-07-10T14:08:50.414Z,19.90
2018-07-10T14:10:54.970Z,19.90
2018-07-10T14:15:04.174Z,20.00
2018-07-10T14:17:14.483Z,20.00
2018-07-10T14:19:21.984Z,20.10
2018-07-10T14:21:27.205Z,20.20
2018-07-10T14:23:31.745Z,20.20
2018-07-10T14:25:36.214Z,20.20
2018-07-10T14:27:40.763Z,20.20
2018-07-10T14:29:45.424Z,20.30
2018-07-10T14:31:50.133Z,20.30
2018-07-10T14:33:54.702Z,20.30
2018-07-10T14:35:59.315Z,20.30
2018-07-10T14:38:06.947Z,20.30
2018-07-10T14:40:11.574Z,20.30
2018-07-10T14:42:16.211Z,20.30
2018-07-10T14:44:21.538Z,20.30
2018-07-10T14:46:26.426Z,20.30
2018-07-10T14:48:35.092Z,20.40
2018-07-10T14:50:39.649Z,20.40
2018-07-10T14:52:44.407Z,20.40
2018-07-10T14:54:48.972Z,20.40
2018-07-10T14:56:54.730Z,20.40
2018-07-10T14:58:59.468Z,20.40
2018-07-10T15:01:03.957Z,20.40
2018-07-10T15:03:08.818Z,20.40
2018-07-10T15:05:13.446Z,20.40
2018-07-10T15:07:18.115Z,20.40
2018-07-10T15:09:22.673Z,20.40
2018-07-10T15:11:27.344Z,20.40
2018-07-10T15:14:10.618Z,20.40
2018-07-10T15:16:16.749Z,20.40
2018-07-10T15:18:54.125Z,20.40
2018-07-10T15:20:58.802Z,20.30
2018-07-10T15:23:06.050Z,20.30
2018-07-10T15:25:10.628Z,20.30
2018-07-10T15:27:15.134Z,20.20
2018-07-10T15:29:25.006Z,20.20
2018-07-10T15:31:29.774Z,20.20
2018-07-10T15:33:34.297Z,20.20
2018-07-10T15:35:38.845Z,20.20
2018-07-10T15:37:43.540Z,20.20
2018-07-10T15:39:49.739Z,20.10
2018-07-10T15:41:55.993Z,20.20
2018-07-10T15:46:04.683Z,20.20
2018-07-10T15:48:09.330Z,20.20
2018-07-10T15:50:13.905Z,20.20
2018-07-10T15:52:18.390Z,20.30
2018-07-10T15:54:22.948Z,20.30
2018-07-10T15:56:27.541Z,20.30
2018-07-10T15:58:32.342Z,20.30
2018-07-10T16:00:37.111Z,20.30
2018-07-10T16:02:41.592Z,20.30
2018-07-10T16:04:46.860Z,20.30
2018-07-10T16:06:51.690Z,20.30
2018-07-10T16:09:08.104Z,20.40
2018-07-10T16:11:12.692Z,20.40
2018-07-10T16:13:17.582Z,20.40
2018-07-10T16:15:22.178Z,20.40
2018-07-10T16:17:28.881Z,20.40
2018-07-10T16:19:46.155Z,20.40
2018-07-10T16:21:57.296Z,20.30
2018-07-10T16:24:04.756Z,20.30
2018-07-10T16:26:20.380Z,20.30
2018-07-10T16:28:27.891Z,20.30
2018-07-10T16:30:32.584Z,20.30
2018-07-10T16:32:41.243Z,20.30
2018-07-10T16:34:45.834Z,20.30
2018-07-10T16:36:50.383Z,20.20
2018-07-10T16:38:55.025Z,20.20
2018-07-10T16:41:05.810Z,20.20
2018-07-10T16:43:15.694Z,20.10
2018-07-10T16:45:35.597Z,20.10
2018-07-10T16:47:49.707Z,20.00
2018-07-10T16:49:56.493Z,20.00
2018-07-10T16:52:12.907Z,19.90
2018-07-10T16:54:18.193Z,19.90
2018-07-10T16:56:23.330Z,19.90
2018-07-10T16:58:29.267Z,19.90
2018-07-10T17:00:33.837Z,19.80
2018-07-10T17:02:39.114Z,19.80
2018-07-10T17:04:44.286Z,19.80
2018-07-10T17:06:50.658Z,19.70
2018-07-10T17:08:56.094Z,19.70
2018-07-10T17:11:00.854Z,19.70
2018-07-10T17:13:05.904Z,19.70
2018-07-10T17:15:11.010Z,19.70
2018-07-10T17:17:15.981Z,19.70
2018-07-10T17:21:26.771Z,19.70
2018-07-10T17:23:31.761Z,19.70
2018-07-10T17:25:36.374Z,19.70
2018-07-10T17:27:44.804Z,19.70
2018-07-10T17:29:49.818Z,19.80
2018-07-10T17:31:54.721Z,19.80
2018-07-10T17:34:00.565Z,19.80
2018-07-10T17:38:10.715Z,19.80
2018-07-10T17:40:16.081Z,19.80
2018-07-10T17:42:20.635Z,19.80
2018-07-10T17:44:25.459Z,19.80
2018-07-10T17:46:30.817Z,19.80
2018-07-10T17:48:35.354Z,19.80
2018-07-10T17:50:39.959Z,19.80
2018-07-10T17:52:44.619Z,19.80
2018-07-10T17:54:49.331Z,19.90
2018-07-10T17:56:54.430Z,19.90
2018-07-10T17:58:59.931Z,19.90
2018-07-10T18:01:04.666Z,19.80
2018-07-10T18:03:09.942Z,19.90
2018-07-10T18:05:14.994Z,19.80
2018-07-10T18:07:19.593Z,19.90
2018-07-10T18:09:24.146Z,19.90
2018-07-10T18:11:29.062Z,19.90
2018-07-10T18:13:33.908Z,19.90
2018-07-10T18:17:42.714Z,19.90
2018-07-10T18:19:47.275Z,19.90
2018-07-10T18:21:52.253Z,19.90
2018-07-10T18:23:57.641Z,19.80
2018-07-10T18:26:02.381Z,19.80
2018-07-10T18:28:07.260Z,19.80
2018-07-10T18:30:12.183Z,19.80
2018-07-10T18:32:16.701Z,19.80
2018-07-10T18:34:21.957Z,19.80
2018-07-10T18:36:27.047Z,19.80
2018-07-10T18:38:31.522Z,19.80
2018-07-10T18:40:36.118Z,19.80
2018-07-10T18:42:40.810Z,19.70
2018-07-10T18:44:45.678Z,19.70
2018-07-10T18:46:50.302Z,19.70
2018-07-10T18:48:55.150Z,19.70
2018-07-10T18:50:59.714Z,19.80
2018-07-10T18:53:04.718Z,19.70
2018-07-10T18:55:09.311Z,19.70
2018-07-10T18:57:46.295Z,19.70
2018-07-10T19:00:01.868Z,19.70
2018-07-10T19:02:14.638Z,19.70
2018-07-10T19:04:20.783Z,19.70
2018-07-10T19:06:25.620Z,19.70
2018-07-10T19:08:30.154Z,19.70
2018-07-10T19:10:34.826Z,19.60
2018-07-10T19:12:39.658Z,19.60
2018-07-10T19:14:44.546Z,19.60
2018-07-10T19:16:49.163Z,19.60
2018-07-10T19:18:59.973Z,19.60
2018-07-10T19:22:11.811Z,19.50
2018-07-10T19:24:17.794Z,19.50
2018-07-10T19:26:27.470Z,19.50
2018-07-10T19:28:32.410Z,19.50
2018-07-10T19:30:53.312Z,19.40
2018-07-10T19:32:57.941Z,19.40
2018-07-10T19:35:03.267Z,19.40
2018-07-10T19:37:07.910Z,19.40
2018-07-10T19:39:12.509Z,19.40
2018-07-10T19:41:21.957Z,19.30
2018-07-10T19:43:26.618Z,19.30
2018-07-10T19:45:31.162Z,19.30
2018-07-10T19:47:35.812Z,19.30
2018-07-10T19:49:40.453Z,19.30
2018-07-10T19:51:46.322Z,19.30
2018-07-10T19:54:04.501Z,19.30
2018-07-10T19:56:09.132Z,19.30
2018-07-10T19:58:34.829Z,19.30
2018-07-10T20:00:46.487Z,19.20
2018-07-10T20:02:51.094Z,19.20
2018-07-10T20:05:11.709Z,19.20
2018-07-10T20:09:27.030Z,19.10
2018-07-10T20:13:48.353Z,19.10
2018-07-10T20:16:18.109Z,19.10
2018-07-10T20:20:06.973Z,19.00
2018-07-10T20:22:38.226Z,19.00
2018-07-10T20:24:55.934Z,19.00
2018-07-10T20:27:12.675Z,18.80
2018-07-10T20:30:34.155Z,18.80
2018-07-10T20:32:52.372Z,18.70
2018-07-10T20:35:13.653Z,18.70
2018-07-10T20:37:28.290Z,18.60
2018-07-10T20:39:37.839Z,18.60
2018-07-10T20:41:46.609Z,18.50
2018-07-10T20:43:53.349Z,18.50
2018-07-10T20:45:58.024Z,18.50
2018-07-10T20:48:02.498Z,18.50
2018-07-10T20:50:07.183Z,18.40
2018-07-10T20:52:11.894Z,18.40
2018-07-10T20:54:21.001Z,18.40
2018-07-10T20:56:46.647Z,18.30
2018-07-10T20:59:02.227Z,18.30
2018-07-10T21:01:09.575Z,18.30
2018-07-10T21:05:43.081Z,18.20
2018-07-10T21:08:03.534Z,18.20
2018-07-10T21:10:21.065Z,18.10
2018-07-10T21:12:36.742Z,18.10
2018-07-10T21:17:19.470Z,18.00
2018-07-10T21:19:36.725Z,17.90
2018-07-10T21:22:33.941Z,17.90
2018-07-10T21:24:46.589Z,17.80
2018-07-10T21:27:08.360Z,17.80
2018-07-10T21:29:30.593Z,17.80
2018-07-10T21:31:43.662Z,17.70
2018-07-10T21:36:08.094Z,17.60
2018-07-10T21:38:20.213Z,17.60
2018-07-10T21:40:41.503Z,17.50
2018-07-10T21:43:37.943Z,17.50
2018-07-10T21:47:01.766Z,17.40
2018-07-10T21:49:37.927Z,17.40
2018-07-10T21:51:49.087Z,17.30
2018-07-10T21:53:53.603Z,17.20
2018-07-10T21:55:58.136Z,17.20
2018-07-10T22:00:06.858Z,17.20
2018-07-10T22:02:11.994Z,17.20
2018-07-10T22:04:20.804Z,17.10
2018-07-10T22:06:25.397Z,17.10
2018-07-10T22:08:30.013Z,17.10
2018-07-10T22:12:46.851Z,17.10
2018-07-10T22:19:00.387Z,17.10
2018-07-10T22:21:04.955Z,17.00
2018-07-10T22:23:09.571Z,17.00
2018-07-10T22:25:14.151Z,17.00
2018-07-10T22:27:19.151Z,17.00
2018-07-10T22:29:28.902Z,17.00
2018-07-10T22:31:39.323Z,17.00
2018-07-10T22:33:43.824Z,17.00
2018-07-10T22:35:48.422Z,17.00
2018-07-10T22:37:54.106Z,17.00
2018-07-10T22:39:58.689Z,17.00
2018-07-10T22:42:03.686Z,17.00
2018-07-10T22:44:08.293Z,17.00
2018-07-10T22:46:12.878Z,17.00
2018-07-10T22:48:17.513Z,17.00
2018-07-10T22:50:23.946Z,17.00
2018-07-10T22:52:29.618Z,16.90
2018-07-10T22:54:37.531Z,17.00
2018-07-10T22:56:42.098Z,16.90
2018-07-10T22:58:51.555Z,17.00
2018-07-10T23:00:58.867Z,16.90
2018-07-10T23:05:38.842Z,16.90
2018-07-10T23:07:43.431Z,16.90
2018-07-10T23:09:47.995Z,16.90
2018-07-10T23:11:53.058Z,16.90
2018-07-10T23:13:57.635Z,16.90
2018-07-10T23:16:02.226Z,16.80
2018-07-10T23:18:06.884Z,16.80
2018-07-10T23:20:11.510Z,16.80
2018-07-10T23:22:16.036Z,16.80
2018-07-10T23:24:20.777Z,16.80
2018-07-10T23:26:25.367Z,16.80
2018-07-10T23:30:39.914Z,16.80
2018-07-10T23:32:44.578Z,16.80
2018-07-10T23:34:49.161Z,16.80
2018-07-10T23:36:57.023Z,16.80
2018-07-10T23:39:11.226Z,16.80
2018-07-10T23:41:33.902Z,16.80
2018-07-10T23:45:46.562Z,16.80
2018-07-10T23:48:07.661Z,16.80
2018-07-10T23:50:18.171Z,16.80
2018-07-10T23:52:36.566Z,16.90
2018-07-10T23:54:41.106Z,16.80
2018-07-10T23:56:45.702Z,16.90
2018-07-10T23:58:50.731Z,16.80
